createdAt,value
2022-09-12T00:01:03.957Z,100951.00
2022-09-12T00:03:31.503Z,100949.03
2022-09-12T00:05:58.591Z,100953.00
2022-09-12T00:08:25.704Z,100945.44
2022-09-12T00:10:52.896Z,100942.25
2022-09-12T00:13:20.021Z,100945.44
2022-09-12T00:15:47.407Z,100941.44
2022-09-12T00:18:16.862Z,100933.06
2022-09-12T00:20:45.953Z,100935.00
2022-09-12T00:23:14.175Z,100940.16
2022-09-12T00:25:46.440Z,100933.00
2022-09-12T00:28:15.726Z,100929.00
2022-09-12T00:30:48.499Z,100923.81
2022-09-12T00:33:16.586Z,100922.19
2022-09-12T00:35:55.645Z,100924.59
2022-09-12T00:38:22.733Z,100925.38
2022-09-12T00:40:50.198Z,100918.19
2022-09-12T00:43:40.983Z,100922.16
2022-09-12T00:46:15.442Z,100924.97
2022-09-12T00:48:49.581Z,100925.75
2022-09-12T00:51:18.399Z,100922.53
2022-09-12T00:53:48.359Z,100915.81
2022-09-12T00:56:17.822Z,100923.31
2022-09-12T00:59:08.575Z,100919.75
2022-09-12T01:01:36.800Z,100919.72
2022-09-12T01:04:04.152Z,100915.38
2022-09-12T01:06:37.796Z,100921.31
2022-09-12T01:09:06.114Z,100918.53
2022-09-12T01:11:37.731Z,100916.16
2022-09-12T01:14:06.984Z,100915.72
2022-09-12T01:16:38.538Z,100915.34
2022-09-12T01:19:42.869Z,100920.13
2022-09-12T01:22:28.984Z,100915.72
2022-09-12T01:25:07.885Z,100907.38
2022-09-12T01:27:47.110Z,100910.16
2022-09-12T01:30:44.498Z,100903.81
2022-09-12T01:33:30.107Z,100911.34
2022-09-12T01:36:15.770Z,100912.56
2022-09-12T01:39:12.311Z,100913.34
2022-09-12T01:42:02.823Z,100910.94
2022-09-12T01:44:56.515Z,100908.56
2022-09-12T01:47:40.262Z,100901.41
2022-09-12T01:50:16.578Z,100901.78
2022-09-12T01:52:54.840Z,100904.13
2022-09-12T01:55:30.207Z,100908.47
2022-09-12T01:58:06.259Z,100902.88
2022-09-12T02:00:40.216Z,100908.03
2022-09-12T02:03:19.460Z,100904.84
2022-09-12T02:05:56.863Z,100910.81
2022-09-12T02:08:32.877Z,100919.53
2022-09-12T02:11:06.904Z,100917.94
2022-09-12T02:13:45.057Z,100906.81
2022-09-12T02:16:25.026Z,100910.00
2022-09-12T02:19:04.084Z,100903.25
2022-09-12T02:21:34.164Z,100905.25
2022-09-12T02:24:03.979Z,100900.84
2022-09-12T02:26:44.521Z,100901.66
2022-09-12T02:29:11.794Z,100909.19
2022-09-12T02:31:59.035Z,100907.22
2022-09-12T02:34:34.956Z,100911.56
2022-09-12T02:37:46.155Z,100912.72
2022-09-12T02:40:14.624Z,100909.91
2022-09-12T02:42:42.063Z,100911.47
2022-09-12T02:45:10.577Z,100912.22
2022-09-12T02:47:53.287Z,100913.03
2022-09-12T02:50:20.806Z,100917.75
2022-09-12T02:52:48.855Z,100916.94
2022-09-12T02:55:17.082Z,100902.66
2022-09-12T02:57:44.254Z,100911.38
2022-09-12T03:00:12.547Z,100906.22
2022-09-12T03:03:09.551Z,100911.34
2022-09-12T03:05:56.560Z,100903.00
2022-09-12T03:08:41.138Z,100908.13
2022-09-12T03:11:23.543Z,100906.53
2022-09-12T03:14:08.301Z,100907.72
2022-09-12T03:17:00.413Z,100909.75
2022-09-12T03:19:49.159Z,100904.56
2022-09-12T03:22:28.886Z,100910.50
2022-09-12T03:25:09.829Z,100905.72
2022-09-12T03:27:44.742Z,100915.97
2022-09-12T03:30:12.959Z,100914.78
2022-09-12T03:32:43.735Z,100919.91
2022-09-12T03:35:13.086Z,100917.09
2022-09-12T03:37:40.558Z,100919.88
2022-09-12T03:40:09.825Z,100917.09
2022-09-12T03:42:37.050Z,100920.63
2022-09-12T03:45:07.768Z,100920.63
2022-09-12T03:47:35.950Z,100925.34
2022-09-12T03:50:03.737Z,100920.91
2022-09-12T03:52:30.862Z,100933.22
2022-09-12T03:54:58.008Z,100934.81
2022-09-12T03:57:25.351Z,100933.22
2022-09-12T03:59:52.553Z,100926.09
2022-09-12T04:02:19.731Z,100933.66
2022-09-12T04:04:49.010Z,100932.88
2022-09-12T04:07:17.025Z,100937.63
2022-09-12T04:09:44.424Z,100944.38
2022-09-12T04:12:11.862Z,100948.31
2022-09-12T04:14:39.019Z,100937.94
2022-09-12T04:17:06.209Z,100941.47
2022-09-12T04:19:33.435Z,100948.91
2022-09-12T04:22:00.484Z,100942.44
2022-09-12T04:24:27.753Z,100944.72
2022-09-12T04:26:54.988Z,100949.00
2022-09-12T04:29:22.525Z,100955.19
2022-09-12T04:31:49.751Z,100961.16
2022-09-12T04:34:16.997Z,100960.72
2022-09-12T04:36:44.271Z,100958.78
2022-09-12T04:39:12.220Z,100968.31
2022-09-12T04:41:42.035Z,100969.53
2022-09-12T04:44:13.204Z,100963.72
2022-09-12T04:46:43.569Z,100973.41
2022-09-12T04:49:11.761Z,100976.94
2022-09-12T04:51:40.179Z,100975.34
2022-09-12T04:54:11.197Z,100983.94
2022-09-12T04:56:44.275Z,100981.41
2022-09-12T04:59:13.306Z,100973.28
2022-09-12T05:01:41.433Z,100981.31
2022-09-12T05:04:10.460Z,100978.72
2022-09-12T05:06:38.605Z,100990.28
2022-09-12T05:09:07.563Z,100996.63
2022-09-12T05:12:02.815Z,100993.06
2022-09-12T05:14:25.301Z,100995.91
2022-09-12T05:16:52.415Z,101003.03
2022-09-12T05:19:19.671Z,101001.13
2022-09-12T05:21:46.838Z,101000.31
2022-09-12T05:24:13.968Z,101004.78
2022-09-12T05:26:41.155Z,101001.13
2022-09-12T05:29:08.440Z,101010.81
2022-09-12T05:31:36.060Z,101013.03
2022-09-12T05:34:10.416Z,101019.09
2022-09-12T05:36:38.765Z,101015.53
2022-09-12T05:39:06.333Z,101017.09
2022-09-12T05:41:34.673Z,101023.53
2022-09-12T05:44:04.860Z,101018.16
2022-09-12T05:46:37.269Z,101024.28
2022-09-12T05:49:05.855Z,101036.84
2022-09-12T05:51:36.011Z,101042.66
2022-09-12T05:54:05.933Z,101044.75
2022-09-12T05:56:39.082Z,101047.75
2022-09-12T05:59:18.620Z,101047.09
2022-09-12T06:01:46.310Z,101047.66
2022-09-12T06:04:13.611Z,101051.66
2022-09-12T06:06:45.332Z,101046.34
2022-09-12T06:09:15.078Z,101046.00
2022-09-12T06:11:42.677Z,101040.91
2022-09-12T06:14:11.933Z,101045.41
2022-09-12T06:16:39.342Z,101040.75
2022-09-12T06:19:13.254Z,101038.81
2022-09-12T06:21:40.423Z,101044.34
2022-09-12T06:24:07.854Z,101041.03
2022-09-12T06:26:35.730Z,101053.78
2022-09-12T06:29:03.306Z,101059.91
2022-09-12T06:31:33.836Z,101056.03
2022-09-12T06:34:03.279Z,101066.13
2022-09-12T06:36:33.334Z,101070.00
2022-09-12T06:39:02.940Z,101072.13
2022-09-12T06:41:31.471Z,101070.34
2022-09-12T06:43:59.870Z,101078.66
2022-09-12T06:46:27.841Z,101071.28
2022-09-12T06:48:59.806Z,101078.13
2022-09-12T06:51:28.343Z,101071.91
2022-09-12T06:53:57.298Z,101083.09
2022-09-12T06:56:27.009Z,101078.56
2022-09-12T06:58:56.718Z,101080.22
2022-09-12T07:01:29.447Z,101073.97
2022-09-12T07:03:59.514Z,101062.53
2022-09-12T07:06:32.117Z,101074.97
2022-09-12T07:09:01.306Z,101062.88
2022-09-12T07:11:34.158Z,101071.91
2022-09-12T07:14:04.249Z,101076.63
2022-09-12T07:16:32.211Z,101077.31
2022-09-12T07:19:02.388Z,101080.22
2022-09-12T07:21:30.580Z,101079.13
2022-09-12T07:23:58.709Z,101084.22
2022-09-12T07:26:27.950Z,101090.09
2022-09-12T07:29:03.937Z,101094.50
2022-09-12T07:31:35.441Z,101093.22
2022-09-12T07:34:06.446Z,101089.81
2022-09-12T07:36:35.340Z,101092.47
2022-09-12T07:39:02.454Z,101094.50
2022-09-12T07:41:32.247Z,101099.28
2022-09-12T07:44:01.866Z,101093.06
2022-09-12T07:46:31.220Z,101092.47
2022-09-12T07:49:00.019Z,101090.28
2022-09-12T07:51:28.906Z,101090.75
2022-09-12T07:53:56.785Z,101101.25
2022-09-12T07:56:29.409Z,101095.41
2022-09-12T07:58:58.004Z,101095.06
2022-09-12T08:01:25.233Z,101099.44
2022-09-12T08:03:58.252Z,101095.16
2022-09-12T08:06:27.253Z,101096.13
2022-09-12T08:08:56.613Z,101098.97
2022-09-12T08:11:25.601Z,101103.97
2022-09-12T08:13:55.935Z,101097.81
2022-09-12T08:16:29.880Z,101105.47
2022-09-12T08:18:57.349Z,101111.31
2022-09-12T08:21:27.134Z,101112.00
2022-09-12T08:23:59.531Z,101114.22
2022-09-12T08:26:27.468Z,101121.50
2022-09-12T08:28:55.449Z,101116.59
2022-09-12T08:31:25.019Z,101121.00
2022-09-12T08:33:52.725Z,101129.16
2022-09-12T08:36:22.878Z,101132.97
2022-09-12T08:38:59.804Z,101128.63
2022-09-12T08:41:43.926Z,101135.53
2022-09-12T08:44:20.399Z,101133.88
2022-09-12T08:47:08.787Z,101131.78
2022-09-12T08:49:40.343Z,101129.19
2022-09-12T08:52:15.026Z,101129.84
2022-09-12T08:54:45.702Z,101125.53
2022-09-12T08:57:15.358Z,101138.28
2022-09-12T08:59:45.097Z,101125.16
2022-09-12T09:02:32.002Z,101126.66
2022-09-12T09:05:30.282Z,101129.81
2022-09-12T09:08:32.608Z,101133.88
2022-09-12T09:11:20.803Z,101128.25
2022-09-12T09:14:18.510Z,101121.50
2022-09-12T09:16:50.766Z,101131.38
2022-09-12T09:19:24.136Z,101131.47
2022-09-12T09:21:59.446Z,101129.72
2022-09-12T09:24:52.372Z,101124.94
2022-09-12T09:27:41.274Z,101127.59
2022-09-12T09:30:19.317Z,101127.16
2022-09-12T09:32:53.104Z,101133.97
2022-09-12T09:35:45.822Z,101142.81
2022-09-12T09:38:28.986Z,101135.91
2022-09-12T09:40:59.019Z,101132.84
2022-09-12T09:43:29.458Z,101137.19
2022-09-12T09:46:00.768Z,101145.66
2022-09-12T09:48:32.988Z,101133.50
2022-09-12T09:51:02.370Z,101135.34
2022-09-12T09:53:46.464Z,101132.53
2022-09-12T09:56:27.484Z,101132.19
2022-09-12T09:58:55.004Z,101124.44
2022-09-12T10:01:22.489Z,101130.97
2022-09-12T10:03:55.036Z,101124.91
2022-09-12T10:06:37.145Z,101125.28
2022-09-12T10:09:14.965Z,101120.50
2022-09-12T10:11:45.750Z,101124.59
2022-09-12T10:14:30.548Z,101123.34
2022-09-12T10:16:58.718Z,101125.63
2022-09-12T10:19:37.288Z,101128.63
2022-09-12T10:22:07.189Z,101126.09
2022-09-12T10:24:43.819Z,101121.00
2022-09-12T10:27:14.040Z,101118.44
2022-09-12T10:30:01.409Z,101125.63
2022-09-12T10:32:36.610Z,101122.59
2022-09-12T10:35:16.209Z,101118.91
2022-09-12T10:37:59.739Z,101116.50
2022-09-12T10:40:46.191Z,101117.47
2022-09-12T10:43:29.727Z,101104.94
2022-09-12T10:46:20.947Z,101113.03
2022-09-12T10:48:51.070Z,101105.91
2022-09-12T10:51:23.861Z,101099.22
2022-09-12T10:54:03.073Z,101108.00
2022-09-12T10:56:38.946Z,101105.66
2022-09-12T10:59:24.571Z,101100.94
2022-09-12T11:02:10.548Z,101103.75
2022-09-12T11:04:51.716Z,101099.81
2022-09-12T11:07:49.877Z,101105.34
2022-09-12T11:10:23.225Z,101109.81
2022-09-12T11:12:50.252Z,101102.94
2022-09-12T11:15:43.400Z,101095.25
2022-09-12T11:18:25.458Z,101095.88
2022-09-12T11:21:14.268Z,101095.44
2022-09-12T11:24:03.086Z,101094.75
2022-09-12T11:26:44.450Z,101100.78
2022-09-12T11:29:26.421Z,101091.63
2022-09-12T11:32:30.585Z,101090.81
2022-09-12T11:35:26.354Z,101094.38
2022-09-12T11:38:12.185Z,101078.84
2022-09-12T11:41:05.592Z,101083.19
2022-09-12T11:43:32.649Z,101079.47
2022-09-12T11:46:20.967Z,101086.34
2022-09-12T11:48:59.727Z,101087.16
2022-09-12T11:51:32.185Z,101080.75
2022-09-12T11:54:10.539Z,101078.63
2022-09-12T11:56:43.287Z,101080.25
2022-09-12T11:59:15.913Z,101077.28
2022-09-12T12:01:48.690Z,101081.63
2022-09-12T12:04:20.921Z,101079.66
2022-09-12T12:07:01.665Z,101071.94
2022-09-12T12:09:29.141Z,101076.28
2022-09-12T12:12:00.748Z,101076.22
2022-09-12T12:14:38.685Z,101065.00
2022-09-12T12:17:16.894Z,101069.91
2022-09-12T12:19:45.495Z,101066.78
2022-09-12T12:22:31.641Z,101059.06
2022-09-12T12:25:17.265Z,101060.22
2022-09-12T12:27:46.708Z,101067.13
2022-09-12T12:30:34.460Z,101050.09
2022-09-12T12:33:22.096Z,101067.94
2022-09-12T12:36:30.852Z,101058.69
2022-09-12T12:38:59.051Z,101059.88
2022-09-12T12:41:26.063Z,101058.34
2022-09-12T12:43:56.737Z,101049.59
2022-09-12T12:46:29.623Z,101046.88
2022-09-12T12:49:27.097Z,101038.00
2022-09-12T12:51:54.678Z,101039.69
2022-09-12T12:54:50.067Z,101033.25
2022-09-12T12:57:39.522Z,101035.56
2022-09-12T13:00:30.221Z,101030.41
2022-09-12T13:03:18.403Z,101041.66
2022-09-12T13:05:50.298Z,101038.84
2022-09-12T13:08:17.469Z,101026.16
2022-09-12T13:10:53.805Z,101030.25
2022-09-12T13:13:45.699Z,101012.22
2022-09-12T13:16:35.217Z,101016.91
2022-09-12T13:19:07.275Z,101020.53
2022-09-12T13:21:34.634Z,101009.88
2022-09-12T13:24:13.947Z,101009.00
2022-09-12T13:26:44.281Z,101017.31
2022-09-12T13:29:17.656Z,101009.78
2022-09-12T13:31:50.998Z,101014.97
2022-09-12T13:34:26.732Z,101010.16
2022-09-12T13:36:54.032Z,101009.38
2022-09-12T13:39:35.740Z,101013.09
2022-09-12T13:42:38.152Z,101012.00
2022-09-12T13:45:22.975Z,101007.63
2022-09-12T13:48:01.021Z,101008.75
2022-09-12T13:50:46.729Z,100999.94
2022-09-12T13:53:17.422Z,101002.28
2022-09-12T13:55:50.333Z,101011.81
2022-09-12T13:58:23.907Z,101007.06
2022-09-12T14:01:39.558Z,101012.69
2022-09-12T14:04:38.338Z,101003.97
2022-09-12T14:07:17.482Z,101007.25
2022-09-12T14:09:47.364Z,101006.91
2022-09-12T14:12:22.620Z,101007.69
2022-09-12T14:14:52.023Z,101000.09
2022-09-12T14:17:24.305Z,100995.69
2022-09-12T14:19:53.097Z,100990.13
2022-09-12T14:22:20.576Z,100994.91
2022-09-12T14:24:51.890Z,100993.31
2022-09-12T14:27:24.193Z,100988.19
2022-09-12T14:30:09.745Z,100992.97
2022-09-12T14:32:37.082Z,100994.56
2022-09-12T14:35:20.558Z,101002.16
2022-09-12T14:37:50.505Z,100995.41
2022-09-12T14:40:20.662Z,100996.16
2022-09-12T14:42:55.158Z,100995.03
2022-09-12T14:45:29.632Z,100991.09
2022-09-12T14:47:57.130Z,100993.50
2022-09-12T14:50:26.658Z,100994.66
2022-09-12T14:53:08.337Z,100991.09
2022-09-12T14:55:44.816Z,101005.88
2022-09-12T14:58:15.474Z,100989.91
2022-09-12T15:01:03.138Z,100995.09
2022-09-12T15:03:52.174Z,100989.97
2022-09-12T15:06:30.141Z,100992.78
2022-09-12T15:09:00.620Z,100979.63
2022-09-12T15:11:27.774Z,100987.59
2022-09-12T15:13:55.232Z,100986.03
2022-09-12T15:16:22.554Z,100989.22
2022-09-12T15:18:49.663Z,100992.00
2022-09-12T15:21:21.437Z,100993.59
2022-09-12T15:23:50.747Z,100992.34
2022-09-12T15:26:20.626Z,100988.38
2022-09-12T15:28:48.313Z,100991.53
2022-09-12T15:31:27.780Z,100986.78
2022-09-12T15:33:57.275Z,100989.19
2022-09-12T15:36:31.579Z,100984.03
2022-09-12T15:38:58.837Z,100975.28
2022-09-12T15:41:33.109Z,100982.84
2022-09-12T15:44:01.382Z,100972.50
2022-09-12T15:46:28.622Z,100973.69
2022-09-12T15:48:55.938Z,100969.69
2022-09-12T15:51:23.218Z,100974.47
2022-09-12T15:53:51.440Z,100967.31
2022-09-12T15:56:21.406Z,100967.72
2022-09-12T15:58:58.876Z,100964.91
2022-09-12T16:01:28.634Z,100973.28
2022-09-12T16:03:56.282Z,100976.84
2022-09-12T16:06:23.766Z,100970.09
2022-09-12T16:08:51.101Z,100962.91
2022-09-12T16:11:25.025Z,100972.47
2022-09-12T16:13:53.989Z,100969.28
2022-09-12T16:16:21.242Z,100971.72
2022-09-12T16:18:48.787Z,100974.88
2022-09-12T16:21:16.167Z,100968.09
2022-09-12T16:23:44.371Z,100964.53
2022-09-12T16:26:11.597Z,100968.50
2022-09-12T16:28:39.186Z,100961.72
2022-09-12T16:31:08.415Z,100961.34
2022-09-12T16:33:37.213Z,100965.72
2022-09-12T16:36:07.002Z,100976.06
2022-09-12T16:38:34.911Z,100974.84
2022-09-12T16:41:06.532Z,100963.31
2022-09-12T16:43:35.381Z,100958.94
2022-09-12T16:46:17.194Z,100960.94
2022-09-12T16:48:51.157Z,100962.97
2022-09-12T16:51:21.758Z,100960.53
2022-09-12T16:53:49.373Z,100965.34
2022-09-12T16:56:16.938Z,100970.13
2022-09-12T16:58:44.348Z,100968.91
2022-09-12T17:01:16.953Z,100966.13
2022-09-12T17:03:44.533Z,100969.34
2022-09-12T17:06:15.217Z,100959.78
2022-09-12T17:08:44.918Z,100955.41
2022-09-12T17:11:15.030Z,100950.22
2022-09-12T17:14:03.312Z,100959.81
2022-09-12T17:16:30.222Z,100959.38
2022-09-12T17:19:00.073Z,100965.75
2022-09-12T17:21:27.293Z,100962.97
2022-09-12T17:23:55.310Z,100960.59
2022-09-12T17:26:22.431Z,100957.41
2022-09-12T17:28:49.834Z,100960.63
2022-09-12T17:31:17.527Z,100963.78
2022-09-12T17:33:44.888Z,100956.22
2022-09-12T17:36:17.982Z,100957.41
2022-09-12T17:38:46.905Z,100958.63
2022-09-12T17:41:19.673Z,100960.59
2022-09-12T17:43:56.739Z,100966.56
2022-09-12T17:46:27.115Z,100961.00
2022-09-12T17:48:56.674Z,100961.41
2022-09-12T17:51:28.635Z,100967.38
2022-09-12T17:54:01.469Z,100966.19
2022-09-12T17:56:30.982Z,100978.53
2022-09-12T17:58:59.870Z,100978.53
2022-09-12T18:01:47.157Z,100983.28
2022-09-12T18:04:15.792Z,100981.31
2022-09-12T18:06:48.186Z,100988.47
2022-09-12T18:09:18.844Z,100988.84
2022-09-12T18:11:46.984Z,100992.03
2022-09-12T18:14:14.826Z,100985.66
2022-09-12T18:16:43.512Z,100997.19
2022-09-12T18:19:11.368Z,100997.19
2022-09-12T18:21:39.087Z,101009.16
2022-09-12T18:24:08.385Z,101005.97
2022-09-12T18:26:36.104Z,101007.16
2022-09-12T18:29:03.250Z,101007.94
2022-09-12T18:31:33.078Z,101014.31
2022-09-12T18:34:01.229Z,101009.94
2022-09-12T18:36:29.657Z,101009.13
2022-09-12T18:39:00.265Z,101004.78
2022-09-12T18:41:29.208Z,101016.72
2022-09-12T18:43:58.736Z,101008.34
2022-09-12T18:46:31.492Z,101018.66
2022-09-12T18:48:59.237Z,101019.50
2022-09-12T18:51:37.120Z,101023.44
2022-09-12T18:54:34.315Z,101026.22
2022-09-12T18:57:02.560Z,101030.22
2022-09-12T18:59:30.154Z,101032.22
2022-09-12T19:01:58.295Z,101025.44
2022-09-12T19:04:25.459Z,101034.59
2022-09-12T19:06:53.040Z,101035.78
2022-09-12T19:09:22.294Z,101035.00
2022-09-12T19:11:52.467Z,101040.56
2022-09-12T19:14:28.978Z,101033.41
2022-09-12T19:16:56.376Z,101035.00
2022-09-12T19:19:23.682Z,101037.00
2022-09-12T19:21:51.473Z,101035.00
2022-09-12T19:24:19.689Z,101042.56
2022-09-12T19:26:49.726Z,101042.56
2022-09-12T19:29:20.166Z,101043.78
2022-09-12T19:31:51.323Z,101048.53
2022-09-12T19:34:23.692Z,101045.75
2022-09-12T19:36:51.197Z,101049.72
2022-09-12T19:39:20.794Z,101056.88
2022-09-12T19:41:48.623Z,101051.31
2022-09-12T19:44:20.011Z,101054.53
2022-09-12T19:46:47.611Z,101054.94
2022-09-12T19:49:15.738Z,101056.94
2022-09-12T19:51:44.949Z,101056.09
2022-09-12T19:54:14.240Z,101052.16
2022-09-12T19:56:41.757Z,101052.94
2022-09-12T19:59:13.041Z,101047.75
2022-09-12T20:01:41.482Z,101050.94
2022-09-12T20:04:11.275Z,101054.13
2022-09-12T20:06:39.301Z,101059.72
2022-09-12T20:09:07.421Z,101054.09
2022-09-12T20:11:35.445Z,101058.50
2022-09-12T20:14:02.940Z,101056.09
2022-09-12T20:16:31.880Z,101064.88
2022-09-12T20:19:06.315Z,101054.09
2022-09-12T20:21:36.472Z,101064.88
2022-09-12T20:24:11.791Z,101065.66
2022-09-12T20:26:40.099Z,101055.72
2022-09-12T20:29:11.516Z,101064.06
2022-09-12T20:31:42.105Z,101064.84
2022-09-12T20:34:15.591Z,101062.44
2022-09-12T20:36:44.734Z,101060.06
2022-09-12T20:39:18.638Z,101060.88
2022-09-12T20:41:46.918Z,101060.44
2022-09-12T20:44:16.207Z,101066.44
2022-09-12T20:46:44.069Z,101061.25
2022-09-12T20:49:11.450Z,101060.06
2022-09-12T20:51:39.396Z,101056.47
2022-09-12T20:54:07.594Z,101065.59
2022-09-12T20:56:39.890Z,101061.22
2022-09-12T20:59:08.575Z,101061.63
2022-09-12T21:01:38.204Z,101070.34
2022-09-12T21:04:06.567Z,101064.38
2022-09-12T21:06:35.559Z,101067.16
2022-09-12T21:09:03.634Z,101063.97
2022-09-12T21:11:33.446Z,101062.78
2022-09-12T21:14:01.615Z,101065.19
2022-09-12T21:16:29.628Z,101063.56
2022-09-12T21:19:00.419Z,101065.97
2022-09-12T21:21:28.292Z,101069.13
2022-09-12T21:24:01.070Z,101062.34
2022-09-12T21:26:30.680Z,101069.13
2022-09-12T21:28:59.160Z,101067.91
2022-09-12T21:31:26.930Z,101069.91
2022-09-12T21:33:54.305Z,101072.31
2022-09-12T21:36:21.730Z,101067.91
2022-09-12T21:38:48.938Z,101070.28
2022-09-12T21:41:17.440Z,101071.41
2022-09-12T21:43:45.462Z,101071.81
2022-09-12T21:46:13.928Z,101068.25
2022-09-12T21:48:43.059Z,101084.13
2022-09-12T21:51:10.251Z,101081.31
2022-09-12T21:53:37.703Z,101078.97
2022-09-12T21:56:07.517Z,101081.31
2022-09-12T21:58:36.226Z,101074.97
2022-09-12T22:01:06.175Z,101088.50
2022-09-12T22:03:33.829Z,101085.66
2022-09-12T22:06:03.430Z,101082.06
2022-09-12T22:08:32.141Z,101080.84
2022-09-12T22:11:02.324Z,101085.22
2022-09-12T22:13:34.036Z,101079.59
2022-09-12T22:16:03.489Z,101082.78
2022-09-12T22:18:34.081Z,101078.38
2022-09-12T22:21:05.596Z,101082.72
2022-09-12T22:23:51.643Z,101087.88
2022-09-12T22:26:18.780Z,101088.28
2022-09-12T22:28:47.760Z,101087.84
2022-09-12T22:31:15.546Z,101089.44
2022-09-12T22:33:43.174Z,101081.09
2022-09-12T22:36:10.748Z,101079.13
2022-09-12T22:38:38.035Z,101075.53
2022-09-12T22:41:06.991Z,101075.53
2022-09-12T22:43:35.197Z,101082.69
2022-09-12T22:46:06.523Z,101079.09
2022-09-12T22:48:34.242Z,101077.09
2022-09-12T22:51:01.345Z,101076.28
2022-09-12T22:53:28.814Z,101076.69
2022-09-12T22:55:56.036Z,101064.75
2022-09-12T22:58:23.142Z,101074.25
2022-09-12T23:00:52.493Z,101069.88
2022-09-12T23:03:20.733Z,101073.06
2022-09-12T23:05:48.506Z,101082.56
2022-09-12T23:08:17.219Z,101074.63
2022-09-12T23:10:44.375Z,101074.63
2022-09-12T23:13:11.845Z,101080.56
2022-09-12T23:15:39.364Z,101078.19
2022-09-12T23:18:06.755Z,101080.13
2022-09-12T23:20:34.029Z,101082.91
2022-09-12T23:23:01.062Z,101079.72
2022-09-12T23:25:28.258Z,101084.06
2022-09-12T23:27:55.314Z,101081.69
2022-09-12T23:30:22.565Z,101083.25
2022-09-12T23:32:49.848Z,101080.44
2022-09-12T23:35:19.739Z,101076.88
2022-09-12T23:37:47.998Z,101082.41
2022-09-12T23:40:15.409Z,101079.19
2022-09-12T23:42:42.748Z,101077.19
2022-09-12T23:45:11.549Z,101081.91
2022-09-12T23:47:38.731Z,101077.53
2022-09-12T23:50:06.346Z,101077.88
2022-09-12T23:52:33.411Z,101070.34
2022-09-12T23:55:00.579Z,101073.53
2022-09-12T23:57:27.968Z,101073.09
2022-09-12T23:59:55.086Z,101068.31
